Time;durP1;ratioP1;P1;durP2;ratioP2;P2;SDS_P1;SDS_P2;PMS_P1;PMS_P2;Temp;Humidity;BMP_temperature;BMP_pressure;BME280_temperature;BME280_humidity;BME280_pressure;Samples;Min_cycle;Max_cycle;Signal;HPM_P1;HPM_P2
2023/09/10 00:01:10;;;;;;;16.30;14.63;;;19.20;99.90;;;;;;5000039;28;20258;-80
2023/09/10 00:03:37;;;;;;;16.63;15.13;;;19.10;99.90;;;;;;5001200;28;20698;-80
2023/09/10 00:06:07;;;;;;;15.73;14.10;;;19.10;99.90;;;;;;4997489;28;20655;-80
2023/09/10 00:08:35;;;;;;;15.23;13.83;;;19.00;99.90;;;;;;4999733;28;20224;-80
2023/09/10 00:11:02;;;;;;;16.83;13.93;;;19.00;99.90;;;;;;5003552;28;20257;-80
2023/09/10 00:13:29;;;;;;;15.27;13.77;;;19.00;99.90;;;;;;5013278;28;20246;-80
2023/09/10 00:15:56;;;;;;;14.73;13.43;;;19.00;99.90;;;;;;5002526;28;20199;-80
2023/09/10 00:18:23;;;;;;;15.80;14.30;;;18.90;99.90;;;;;;5000622;28;20266;-80
2023/09/10 00:20:52;;;;;;;15.60;14.00;;;18.90;99.90;;;;;;5002680;28;20222;-80
2023/09/10 00:23:21;;;;;;;15.77;14.27;;;18.90;99.90;;;;;;5000784;28;20731;-80
2023/09/10 00:25:48;;;;;;;15.57;14.17;;;18.90;99.90;;;;;;5006295;28;20206;-79
2023/09/10 00:28:15;;;;;;;15.20;13.63;;;18.90;99.90;;;;;;5011903;28;20298;-79
2023/09/10 00:30:42;;;;;;;15.40;13.83;;;18.90;99.90;;;;;;4998308;28;20212;-79
2023/09/10 00:33:10;;;;;;;15.70;14.20;;;18.90;99.90;;;;;;4999687;28;20700;-80
2023/09/10 00:35:36;;;;;;;16.23;14.53;;;18.90;99.90;;;;;;5000409;28;20199;-80
2023/09/10 00:38:03;;;;;;;15.47;13.97;;;18.80;99.90;;;;;;5002245;28;20228;-79
2023/09/10 00:40:31;;;;;;;15.77;14.20;;;18.80;99.90;;;;;;5000861;28;20625;-80
2023/09/10 00:42:58;;;;;;;14.17;12.97;;;18.70;99.90;;;;;;5000951;28;20238;-79
2023/09/10 00:45:25;;;;;;;14.83;13.53;;;18.70;99.90;;;;;;5000239;28;20207;-80
2023/09/10 00:47:52;;;;;;;15.10;13.70;;;18.60;99.90;;;;;;5002508;28;20889;-80
2023/09/10 00:50:19;;;;;;;15.83;13.40;;;18.60;99.90;;;;;;4999074;28;20200;-79
2023/09/10 00:52:49;;;;;;;14.50;13.20;;;18.50;99.90;;;;;;4999263;28;20232;-78
2023/09/10 00:55:18;;;;;;;14.80;13.50;;;18.50;99.90;;;;;;5001610;28;20198;-79
2023/09/10 00:57:46;;;;;;;15.13;13.60;;;18.50;99.90;;;;;;5000985;28;20223;-79
2023/09/10 01:00:14;;;;;;;15.67;14.17;;;18.50;99.90;;;;;;4999542;28;20217;-80
2023/09/10 01:02:43;;;;;;;15.17;13.80;;;18.40;99.90;;;;;;4998208;28;20198;-80
2023/09/10 01:05:10;;;;;;;15.63;13.63;;;18.40;99.90;;;;;;4994981;28;20193;-79
2023/09/10 01:07:37;;;;;;;14.23;12.77;;;18.30;99.90;;;;;;4998392;28;20322;-80
2023/09/10 01:10:05;;;;;;;14.30;12.90;;;18.30;99.90;;;;;;5001876;28;20757;-80
2023/09/10 01:12:39;;;;;;;15.10;13.70;;;18.30;99.90;;;;;;5013669;28;20251;-80
2023/09/10 01:15:13;;;;;;;16.13;14.50;;;18.30;99.90;;;;;;5012971;28;20217;-79
2023/09/10 01:17:54;;;;;;;15.03;13.63;;;18.30;99.90;;;;;;5013898;28;20242;-79
2023/09/10 01:20:48;;;;;;;14.00;12.60;;;18.30;99.90;;;;;;5012205;28;20262;-79
2023/09/10 01:23:16;;;;;;;14.10;12.90;;;18.30;99.90;;;;;;4995270;28;20269;-79
2023/09/10 01:25:46;;;;;;;13.90;12.70;;;18.30;99.90;;;;;;4996546;28;20261;-79
2023/09/10 01:28:13;;;;;;;14.23;12.83;;;18.30;99.90;;;;;;4998565;28;20667;-79
2023/09/10 01:30:40;;;;;;;14.30;12.93;;;18.30;99.90;;;;;;4999968;28;20207;-79
2023/09/10 01:33:12;;;;;;;14.57;13.37;;;18.30;99.90;;;;;;4997796;28;20627;-79
2023/09/10 01:35:46;;;;;;;14.70;13.50;;;18.30;99.90;;;;;;4999145;28;20213;-79
2023/09/10 01:38:18;;;;;;;14.53;13.23;;;18.20;99.90;;;;;;4999787;28;20244;-79
2023/09/10 01:40:52;;;;;;;15.13;13.30;;;18.20;99.90;;;;;;5001228;28;20228;-79
2023/09/10 01:43:20;;;;;;;14.70;13.30;;;18.20;99.90;;;;;;4996459;28;20210;-79
2023/09/10 01:45:49;;;;;;;15.07;13.63;;;18.20;99.90;;;;;;4997411;28;20215;-79
2023/09/10 01:48:16;;;;;;;14.03;12.93;;;18.20;99.90;;;;;;4999119;28;20209;-79
2023/09/10 01:50:43;;;;;;;15.37;13.97;;;18.20;99.90;;;;;;5004723;28;20205;-79
2023/09/10 01:53:10;;;;;;;15.20;13.70;;;18.10;99.90;;;;;;5001575;28;20193;-79
2023/09/10 01:55:37;;;;;;;14.57;13.37;;;18.10;99.90;;;;;;5008508;28;20212;-79
2023/09/10 01:58:05;;;;;;;15.60;14.03;;;18.10;99.90;;;;;;4997216;28;20238;-79
2023/09/10 02:00:32;;;;;;;14.57;13.27;;;18.10;99.90;;;;;;4997911;28;20204;-80
2023/09/10 02:02:59;;;;;;;14.60;13.23;;;18.10;99.90;;;;;;4998126;28;20206;-78
2023/09/10 02:05:25;;;;;;;15.93;14.40;;;18.00;99.90;;;;;;4997163;28;20200;-79
2023/09/10 02:07:52;;;;;;;14.57;13.33;;;18.00;99.90;;;;;;4995317;28;20218;-79
2023/09/10 02:10:19;;;;;;;14.70;13.40;;;18.00;99.90;;;;;;4999076;28;20194;-79
2023/09/10 02:12:46;;;;;;;15.63;14.07;;;18.00;99.90;;;;;;5002961;28;20205;-78
2023/09/10 02:15:14;;;;;;;15.03;13.83;;;17.90;99.90;;;;;;5000226;28;20197;-79
2023/09/10 02:17:41;;;;;;;15.80;14.10;;;17.90;99.90;;;;;;5001093;28;20231;-79
2023/09/10 02:20:09;;;;;;;14.83;13.63;;;17.90;99.90;;;;;;5007843;28;20194;-79
2023/09/10 02:22:37;;;;;;;14.70;13.27;;;17.90;99.90;;;;;;4998284;28;20205;-79
2023/09/10 02:25:05;;;;;;;15.70;14.30;;;17.80;99.90;;;;;;4994524;28;20244;-79
2023/09/10 02:27:32;;;;;;;15.47;14.00;;;17.80;99.90;;;;;;5003235;28;20650;-79
2023/09/10 02:29:59;;;;;;;15.33;13.83;;;17.80;99.90;;;;;;4994331;28;20304;-79
2023/09/10 02:32:27;;;;;;;15.57;14.20;;;17.80;99.90;;;;;;4997062;28;20205;-80
2023/09/10 02:34:54;;;;;;;15.80;14.40;;;17.80;99.90;;;;;;5006320;28;20207;-79
2023/09/10 02:37:21;;;;;;;16.17;14.67;;;17.70;99.90;;;;;;4999014;28;20610;-78
2023/09/10 02:39:48;;;;;;;16.47;14.97;;;17.80;99.90;;;;;;4997903;28;20197;-79
2023/09/10 02:42:15;;;;;;;16.63;14.93;;;17.70;99.90;;;;;;4995476;28;20201;-79
2023/09/10 02:44:42;;;;;;;16.10;14.70;;;17.70;99.90;;;;;;5010089;28;20201;-78
2023/09/10 02:47:08;;;;;;;16.47;14.97;;;17.60;99.90;;;;;;5002193;28;20582;-78
2023/09/10 02:49:37;;;;;;;15.83;14.23;;;17.60;99.90;;;;;;4996931;28;20202;-77
2023/09/10 02:52:04;;;;;;;16.03;13.60;;;17.60;99.90;;;;;;5012753;28;20226;-78
2023/09/10 02:54:32;;;;;;;14.63;13.33;;;17.60;99.90;;;;;;5012516;28;20255;-78
2023/09/10 02:56:59;;;;;;;14.70;13.33;;;17.60;99.90;;;;;;5012525;28;20251;-78
2023/09/10 02:59:26;;;;;;;15.03;13.70;;;17.50;99.90;;;;;;5014358;28;20219;-78
2023/09/10 03:01:53;;;;;;;14.53;13.27;;;17.50;99.90;;;;;;5012546;28;20192;-77
2023/09/10 03:04:21;;;;;;;16.00;14.47;;;17.50;99.90;;;;;;5013664;28;20291;-78
2023/09/10 03:06:51;;;;;;;15.60;14.20;;;17.40;99.90;;;;;;5013234;28;20203;-78
2023/09/10 03:09:18;;;;;;;15.90;14.50;;;17.40;99.90;;;;;;5006521;28;20248;-78
2023/09/10 03:11:46;;;;;;;15.10;13.77;;;17.40;99.90;;;;;;5013544;28;20559;-78
2023/09/10 03:14:13;;;;;;;14.37;13.17;;;17.40;99.90;;;;;;5012980;28;20203;-79
2023/09/10 03:16:42;;;;;;;14.87;13.67;;;17.40;99.90;;;;;;5013206;28;20205;-79
2023/09/10 03:19:11;;;;;;;14.43;13.23;;;17.40;99.90;;;;;;5012499;28;20216;-79
2023/09/10 03:21:38;;;;;;;14.23;13.03;;;17.40;99.90;;;;;;5012965;28;20266;-78
2023/09/10 03:24:08;;;;;;;14.57;13.30;;;17.40;99.90;;;;;;5012594;28;20292;-78
2023/09/10 03:26:35;;;;;;;14.57;13.37;;;17.50;99.90;;;;;;5012663;28;20389;-78
2023/09/10 03:29:02;;;;;;;14.90;13.70;;;17.50;99.90;;;;;;5012174;28;20223;-78
2023/09/10 03:31:29;;;;;;;15.27;13.93;;;17.50;99.90;;;;;;5012674;28;20200;-78
2023/09/10 03:33:56;;;;;;;14.47;13.20;;;17.50;99.90;;;;;;5012318;28;20200;-78
2023/09/10 03:36:23;;;;;;;15.27;13.83;;;17.50;99.90;;;;;;5014748;28;20623;-78
2023/09/10 03:38:50;;;;;;;15.00;13.80;;;17.40;99.90;;;;;;5016649;28;20278;-78
2023/09/10 03:41:18;;;;;;;15.77;14.47;;;17.50;99.90;;;;;;5010619;28;20287;-78
2023/09/10 03:43:45;;;;;;;14.83;13.63;;;17.40;99.90;;;;;;5015934;28;20739;-78
2023/09/10 03:46:12;;;;;;;14.73;13.57;;;17.50;99.90;;;;;;5007615;28;20212;-78
2023/09/10 03:48:39;;;;;;;15.37;14.03;;;17.50;99.90;;;;;;5016529;28;20217;-78
2023/09/10 03:51:06;;;;;;;14.73;13.53;;;17.50;99.90;;;;;;5016000;28;20656;-78
2023/09/10 03:53:33;;;;;;;14.70;13.40;;;17.50;99.90;;;;;;5015841;28;20573;-78
2023/09/10 03:56:00;;;;;;;14.47;13.27;;;17.50;99.90;;;;;;5007136;28;20212;-79
2023/09/10 03:58:28;;;;;;;14.60;13.40;;;17.50;99.90;;;;;;5014728;28;20585;-78
2023/09/10 04:00:55;;;;;;;14.53;13.20;;;17.40;99.90;;;;;;5014575;28;20204;-78
2023/09/10 04:03:22;;;;;;;13.40;12.30;;;17.50;99.90;;;;;;5014441;28;20659;-78
2023/09/10 04:05:49;;;;;;;13.60;12.50;;;17.50;99.90;;;;;;5014871;28;20274;-78
2023/09/10 04:08:15;;;;;;;13.53;12.43;;;17.50;99.90;;;;;;5014672;28;20222;-79
2023/09/10 04:10:45;;;;;;;13.70;12.60;;;17.60;99.90;;;;;;5009838;28;20288;-79
2023/09/10 04:13:12;;;;;;;14.23;13.03;;;17.60;99.90;;;;;;5031592;28;20211;-79
2023/09/10 04:15:40;;;;;;;14.20;13.10;;;17.70;99.90;;;;;;5015640;28;20213;-77
2023/09/10 04:18:08;;;;;;;13.77;12.67;;;17.60;99.90;;;;;;5013806;28;20243;-78
2023/09/10 04:20:35;;;;;;;13.27;12.27;;;17.60;99.90;;;;;;5015405;28;20197;-77
2023/09/10 04:23:05;;;;;;;14.13;13.03;;;17.60;99.90;;;;;;5014513;28;21003;-84
2023/09/10 04:25:31;;;;;;;13.50;12.50;;;17.60;99.90;;;;;;5008778;28;20292;-78
2023/09/10 04:28:01;;;;;;;13.37;12.37;;;17.60;99.90;;;;;;5015850;28;20585;-77
2023/09/10 04:30:28;;;;;;;14.03;13.03;;;17.60;99.90;;;;;;5012955;28;20237;-79
2023/09/10 04:33:01;;;;;;;14.07;12.70;;;17.60;99.90;;;;;;5012464;28;20289;-80
2023/09/10 04:35:28;;;;;;;14.13;12.93;;;17.60;99.90;;;;;;5013031;28;20703;-77
2023/09/10 04:37:55;;;;;;;13.97;12.80;;;17.60;99.90;;;;;;5010325;28;20655;-76
2023/09/10 04:40:22;;;;;;;14.47;13.33;;;17.60;99.90;;;;;;5009805;28;20677;-76
2023/09/10 04:42:52;;;;;;;14.10;12.80;;;17.60;99.90;;;;;;5009226;28;20294;-77
2023/09/10 04:45:19;;;;;;;13.80;12.70;;;17.50;99.90;;;;;;5008302;28;20289;-76
2023/09/10 04:47:45;;;;;;;15.13;13.83;;;17.50;99.90;;;;;;5004396;28;20216;-76
2023/09/10 04:50:14;;;;;;;15.07;13.73;;;17.50;99.90;;;;;;5011134;28;20204;-76
2023/09/10 04:52:41;;;;;;;14.33;13.23;;;17.50;99.90;;;;;;5010257;28;20201;-76
2023/09/10 04:55:08;;;;;;;14.03;12.93;;;17.50;99.90;;;;;;5011175;28;20200;-76
2023/09/10 04:57:35;;;;;;;14.60;13.33;;;17.50;99.90;;;;;;5010963;28;20313;-76
2023/09/10 05:00:02;;;;;;;14.67;13.33;;;17.50;99.90;;;;;;5010923;28;20208;-76
2023/09/10 05:02:29;;;;;;;14.43;13.33;;;17.50;99.90;;;;;;5005165;28;20202;-76
2023/09/10 05:04:56;;;;;;;14.37;13.17;;;17.50;99.90;;;;;;5010533;28;20215;-77
2023/09/10 05:07:25;;;;;;;14.63;13.33;;;17.50;99.90;;;;;;5012353;28;20275;-76
2023/09/10 05:09:52;;;;;;;13.77;12.67;;;17.50;99.90;;;;;;5010422;28;20197;-76
2023/09/10 05:12:19;;;;;;;14.37;13.07;;;17.50;99.90;;;;;;5010529;28;20526;-76
2023/09/10 05:14:46;;;;;;;14.13;13.03;;;17.50;99.90;;;;;;5004447;28;20580;-76
2023/09/10 05:17:12;;;;;;;15.53;14.20;;;17.60;99.90;;;;;;5010666;28;20296;-77
2023/09/10 05:19:39;;;;;;;14.47;13.37;;;17.60;99.90;;;;;;5011159;28;20224;-76
2023/09/10 05:22:06;;;;;;;14.57;13.40;;;17.70;99.90;;;;;;5005911;28;20200;-76
2023/09/10 05:24:35;;;;;;;14.53;13.43;;;17.80;99.90;;;;;;5005997;28;20232;-76
2023/09/10 05:27:00;;;;;;;14.43;13.13;;;17.80;99.90;;;;;;5005863;28;20292;-76
2023/09/10 05:29:28;;;;;;;14.33;13.13;;;17.90;99.90;;;;;;5010995;28;20273;-76
2023/09/10 05:31:55;;;;;;;14.37;13.27;;;18.00;99.90;;;;;;5010487;28;20200;-76
2023/09/10 05:34:22;;;;;;;14.63;13.53;;;18.10;99.90;;;;;;5010567;28;20206;-76
2023/09/10 05:36:50;;;;;;;14.23;13.13;;;18.20;99.90;;;;;;5010620;28;20230;-76
2023/09/10 05:39:17;;;;;;;14.47;13.27;;;18.20;99.90;;;;;;5011598;28;20683;-76
2023/09/10 05:41:45;;;;;;;14.77;13.57;;;18.30;99.90;;;;;;5010206;28;20202;-76
2023/09/10 05:44:12;;;;;;;13.83;12.73;;;18.40;99.90;;;;;;5011780;28;20199;-76
2023/09/10 05:46:39;;;;;;;15.03;13.73;;;18.40;99.90;;;;;;5010563;28;20750;-76
2023/09/10 05:49:06;;;;;;;12.87;11.87;;;18.50;99.90;;;;;;5010402;28;20222;-77
2023/09/10 05:51:33;;;;;;;14.00;12.90;;;18.50;99.90;;;;;;5010812;28;20225;-76
2023/09/10 05:54:00;;;;;;;13.57;12.57;;;18.60;99.90;;;;;;5011605;28;20284;-77
2023/09/10 05:56:28;;;;;;;14.97;13.77;;;18.70;99.90;;;;;;5010852;28;20277;-77
2023/09/10 05:58:56;;;;;;;14.80;13.60;;;18.80;99.90;;;;;;5011678;28;20647;-77
2023/09/10 06:01:23;;;;;;;8.97;8.17;;;18.90;99.90;;;;;;5011609;28;20294;-78
2023/09/10 06:03:51;;;;;;;9.57;8.50;;;19.00;99.90;;;;;;5011108;28;20590;-79
2023/09/10 06:06:17;;;;;;;9.93;8.90;;;19.10;99.90;;;;;;5011943;28;20199;-77
2023/09/10 06:08:44;;;;;;;12.47;10.87;;;19.30;99.90;;;;;;5011253;28;20733;-78
2023/09/10 06:11:11;;;;;;;13.20;11.97;;;19.40;99.90;;;;;;5011730;28;20191;-78
2023/09/10 06:13:38;;;;;;;14.17;12.97;;;19.50;99.90;;;;;;5006975;28;20688;-79
2023/09/10 06:16:06;;;;;;;12.70;11.07;;;19.70;99.90;;;;;;5002973;28;20624;-79
2023/09/10 06:18:33;;;;;;;13.33;12.03;;;19.70;99.90;;;;;;5008826;28;20246;-79
2023/09/10 06:21:00;;;;;;;9.30;8.40;;;19.70;99.90;;;;;;5008928;28;20210;-79
2023/09/10 06:23:27;;;;;;;10.20;8.83;;;19.80;99.90;;;;;;5008031;28;20258;-77
2023/09/10 06:25:54;;;;;;;9.63;8.17;;;19.90;99.90;;;;;;5009910;28;20200;-77
2023/09/10 06:28:24;;;;;;;9.37;8.43;;;20.00;99.90;;;;;;5010381;28;20212;-76
2023/09/10 06:30:51;;;;;;;14.37;13.07;;;20.10;99.90;;;;;;5009688;28;20705;-77
2023/09/10 06:33:19;;;;;;;9.57;8.57;;;20.10;99.90;;;;;;5011201;28;20198;-79
2023/09/10 06:35:46;;;;;;;10.10;9.10;;;20.20;99.90;;;;;;5011125;28;20197;-79
2023/09/10 06:38:13;;;;;;;9.67;8.67;;;20.30;99.90;;;;;;5011069;28;20243;-79
2023/09/10 06:40:40;;;;;;;11.13;9.97;;;20.30;99.90;;;;;;5010576;28;20287;-79
2023/09/10 06:43:09;;;;;;;12.13;10.93;;;20.40;99.90;;;;;;5005569;28;20223;-79
2023/09/10 06:45:51;;;;;;;11.60;9.60;;;20.40;99.90;;;;;;5008779;28;20212;-79
2023/09/10 06:48:19;;;;;;;13.07;11.93;;;20.40;99.90;;;;;;5010547;28;20271;-79
2023/09/10 06:50:46;;;;;;;9.87;8.87;;;20.30;99.90;;;;;;5010290;28;20188;-79
2023/09/10 06:53:13;;;;;;;10.93;9.73;;;20.30;99.90;;;;;;5010452;28;20228;-79
2023/09/10 06:55:40;;;;;;;12.93;11.83;;;20.20;99.90;;;;;;5010419;28;20639;-79
2023/09/10 06:58:07;;;;;;;13.20;12.13;;;20.10;99.90;;;;;;5004943;28;20753;-79
2023/09/10 07:00:35;;;;;;;13.90;12.73;;;20.20;99.90;;;;;;5006182;28;20224;-79
2023/09/10 07:03:02;;;;;;;14.70;13.33;;;20.30;99.90;;;;;;5009386;28;20192;-78
2023/09/10 07:05:30;;;;;;;14.53;13.23;;;20.40;99.90;;;;;;5011015;28;20216;-78
2023/09/10 07:07:57;;;;;;;11.77;10.77;;;20.40;99.90;;;;;;5012654;28;20582;-79
2023/09/10 07:10:24;;;;;;;12.93;11.90;;;20.40;99.90;;;;;;5010889;28;20192;-79
2023/09/10 07:12:51;;;;;;;14.20;12.90;;;20.40;99.90;;;;;;5012624;28;20193;-79
2023/09/10 07:15:18;;;;;;;13.87;12.67;;;20.60;99.90;;;;;;5014238;28;20189;-79
2023/09/10 07:17:44;;;;;;;14.87;13.47;;;20.70;99.90;;;;;;5015047;28;20225;-80
2023/09/10 07:20:12;;;;;;;14.57;13.23;;;20.90;99.90;;;;;;5014289;28;20683;-79
2023/09/10 07:22:40;;;;;;;15.00;13.70;;;21.30;99.90;;;;;;5014408;28;20624;-80
2023/09/10 07:25:08;;;;;;;14.37;13.07;;;21.80;99.90;;;;;;5015266;28;20211;-80
2023/09/10 07:27:37;;;;;;;10.07;8.90;;;22.30;99.90;;;;;;5016603;28;20727;-80
2023/09/10 07:30:06;;;;;;;11.70;10.20;;;22.80;99.90;;;;;;5014910;28;20616;-79
2023/09/10 07:32:33;;;;;;;14.00;12.80;;;23.40;99.90;;;;;;5013139;28;20715;-78
2023/09/10 07:35:00;;;;;;;14.67;13.03;;;23.80;99.90;;;;;;5004034;28;20236;-77
2023/09/10 07:37:26;;;;;;;11.83;9.27;;;24.20;99.90;;;;;;5014556;28;20216;-77
2023/09/10 07:39:55;;;;;;;13.97;12.67;;;24.60;99.90;;;;;;5014815;28;20275;-77
2023/09/10 07:42:21;;;;;;;12.07;9.00;;;25.00;99.90;;;;;;5009843;28;20200;-80
2023/09/10 07:44:48;;;;;;;11.50;10.30;;;25.30;99.90;;;;;;5014549;28;20200;-80
2023/09/10 07:47:15;;;;;;;13.63;9.63;;;25.80;99.90;;;;;;5013861;28;20203;-79
2023/09/10 07:49:42;;;;;;;9.93;8.73;;;26.00;99.90;;;;;;5016273;28;20199;-76
2023/09/10 07:52:09;;;;;;;12.53;10.13;;;26.30;99.90;;;;;;5014924;28;20196;-77
2023/09/10 07:54:36;;;;;;;9.40;8.43;;;26.40;99.90;;;;;;5008613;28;20201;-78
2023/09/10 07:57:05;;;;;;;13.40;12.20;;;26.70;99.90;;;;;;5013464;28;20235;-77
2023/09/10 07:59:32;;;;;;;12.60;11.50;;;26.90;99.90;;;;;;5014446;28;20244;-77
2023/09/10 08:02:01;;;;;;;13.60;12.30;;;27.00;99.90;;;;;;5013214;28;20196;-77
2023/09/10 08:04:28;;;;;;;13.47;12.33;;;27.10;99.90;;;;;;5014173;28;20275;-78
2023/09/10 08:06:54;;;;;;;10.73;9.83;;;27.30;99.90;;;;;;5014851;28;20630;-77
2023/09/10 08:09:21;;;;;;;13.90;12.70;;;27.50;99.90;;;;;;5014580;28;20282;-78
2023/09/10 08:11:48;;;;;;;11.87;10.73;;;27.80;99.90;;;;;;5010704;28;20260;-81
2023/09/10 08:14:16;;;;;;;13.33;12.20;;;28.00;99.90;;;;;;5015735;28;20216;-77
2023/09/10 08:16:44;;;;;;;13.50;12.30;;;28.10;99.90;;;;;;5008299;28;20764;-77
2023/09/10 08:19:11;;;;;;;12.73;11.73;;;28.20;99.90;;;;;;5015489;28;20221;-77
2023/09/10 08:21:38;;;;;;;13.30;11.90;;;28.30;99.90;;;;;;5014250;28;20262;-79
2023/09/10 08:24:05;;;;;;;13.17;12.07;;;28.40;99.90;;;;;;5011885;28;20692;-78
2023/09/10 08:26:32;;;;;;;12.33;11.33;;;28.40;99.90;;;;;;5013663;28;20690;-80
2023/09/10 08:28:59;;;;;;;12.33;10.80;;;28.60;99.90;;;;;;5014343;28;20216;-80
2023/09/10 08:31:27;;;;;;;12.00;10.80;;;28.70;99.90;;;;;;5015023;28;20255;-78
2023/09/10 08:33:57;;;;;;;12.63;11.53;;;28.80;99.90;;;;;;5016256;28;20208;-82
2023/09/10 08:36:24;;;;;;;11.67;10.60;;;29.00;99.90;;;;;;5015531;28;20727;-79
2023/09/10 08:38:50;;;;;;;12.17;10.90;;;29.10;99.90;;;;;;5016729;28;20670;-78
2023/09/10 08:41:24;;;;;;;12.97;10.57;;;29.20;99.90;;;;;;5015006;28;20192;-79
2023/09/10 08:43:56;;;;;;;12.20;11.10;;;29.20;99.90;;;;;;5015444;28;20194;-79
2023/09/10 08:46:29;;;;;;;13.10;11.90;;;29.10;99.90;;;;;;5015493;28;20208;-79
2023/09/10 08:48:58;;;;;;;12.33;11.13;;;29.20;99.90;;;;;;5010948;28;20311;-79
2023/09/10 08:51:26;;;;;;;12.17;10.97;;;29.10;99.90;;;;;;5016537;28;20196;-79
2023/09/10 08:53:57;;;;;;;12.60;11.40;;;29.20;99.90;;;;;;5011607;28;20185;-78
2023/09/10 08:56:24;;;;;;;12.23;10.97;;;29.10;99.90;;;;;;5014236;28;20659;-79
2023/09/10 08:58:52;;;;;;;12.20;11.20;;;29.00;99.90;;;;;;5012885;28;20217;-78
2023/09/10 09:01:19;;;;;;;11.57;10.50;;;29.30;99.90;;;;;;5013697;28;20663;-79
2023/09/10 09:03:47;;;;;;;11.90;10.83;;;29.70;99.90;;;;;;5015092;28;20203;-79
2023/09/10 09:06:16;;;;;;;12.13;11.13;;;29.90;99.90;;;;;;5015782;28;20292;-78
2023/09/10 09:08:48;;;;;;;12.07;10.87;;;29.90;99.90;;;;;;5011854;28;20227;-78
2023/09/10 09:11:16;;;;;;;12.27;11.17;;;30.00;99.90;;;;;;5016621;28;20181;-78
2023/09/10 09:13:45;;;;;;;12.50;11.40;;;30.10;99.90;;;;;;5016330;28;20239;-78
2023/09/10 09:16:12;;;;;;;12.67;11.50;;;30.30;99.90;;;;;;5009943;28;20694;-78
2023/09/10 09:18:40;;;;;;;12.47;11.23;;;30.50;99.90;;;;;;5015818;28;20279;-79
2023/09/10 09:21:17;;;;;;;14.80;11.00;;;30.50;99.90;;;;;;5016435;28;20212;-79
2023/09/10 09:23:47;;;;;;;13.20;11.20;;;30.50;99.90;;;;;;5016896;28;20196;-77
2023/09/10 09:26:15;;;;;;;12.40;11.40;;;30.40;99.90;;;;;;5015062;28;20208;-79
2023/09/10 09:28:42;;;;;;;12.40;11.10;;;30.40;99.90;;;;;;5015594;28;20216;-79
2023/09/10 09:31:09;;;;;;;13.00;11.90;;;30.40;99.90;;;;;;5014825;28;20188;-79
2023/09/10 09:33:36;;;;;;;15.90;10.83;;;30.50;99.90;;;;;;5016036;28;20659;-79
2023/09/10 09:36:08;;;;;;;12.20;10.97;;;30.70;99.90;;;;;;5017231;28;20208;-79
2023/09/10 09:38:35;;;;;;;12.07;11.07;;;30.70;99.90;;;;;;5014978;28;20213;-79
2023/09/10 09:41:04;;;;;;;11.60;10.50;;;30.80;99.90;;;;;;5016808;28;20221;-79
2023/09/10 09:43:34;;;;;;;12.27;10.97;;;30.70;99.90;;;;;;5015509;28;20227;-78
2023/09/10 09:46:01;;;;;;;11.67;10.57;;;30.90;99.90;;;;;;5008267;28;20280;-80
2023/09/10 09:48:28;;;;;;;11.80;10.70;;;31.10;99.90;;;;;;5017423;28;20283;-79
2023/09/10 09:50:55;;;;;;;11.93;10.73;;;31.10;99.90;;;;;;5014823;28;20203;-77
2023/09/10 09:53:25;;;;;;;11.73;10.53;;;30.90;99.90;;;;;;5012940;28;20209;-77
2023/09/10 09:55:55;;;;;;;11.50;10.50;;;31.00;99.90;;;;;;5005939;28;20197;-79
2023/09/10 09:58:23;;;;;;;11.17;10.13;;;30.90;99.90;;;;;;5015056;28;20217;-78
2023/09/10 10:00:50;;;;;;;11.47;10.57;;;30.90;99.90;;;;;;5016948;28;20212;-77
2023/09/10 10:03:19;;;;;;;10.97;9.97;;;30.90;99.90;;;;;;5012559;28;20255;-79
2023/09/10 10:05:49;;;;;;;11.33;10.30;;;30.90;99.90;;;;;;5005022;28;20216;-78
2023/09/10 10:08:16;;;;;;;11.00;10.10;;;30.70;99.90;;;;;;5014934;28;20216;-80
2023/09/10 10:10:47;;;;;;;12.63;10.33;;;30.80;99.90;;;;;;5010666;28;20667;-82
2023/09/10 10:13:16;;;;;;;10.60;9.70;;;30.70;99.90;;;;;;5011977;28;20291;-81
2023/09/10 10:15:46;;;;;;;11.47;10.37;;;30.60;99.90;;;;;;5014132;28;20196;-82
2023/09/10 10:18:16;;;;;;;12.30;10.77;;;30.50;99.90;;;;;;5013367;28;20307;-81
2023/09/10 10:20:47;;;;;;;11.53;10.63;;;30.30;99.90;;;;;;5007336;28;20683;-82
2023/09/10 10:23:21;;;;;;;11.43;10.40;;;30.10;99.90;;;;;;5010409;28;20687;-82
2023/09/10 10:25:49;;;;;;;11.67;10.47;;;29.80;99.90;;;;;;5006156;28;20205;-82
2023/09/10 10:28:17;;;;;;;11.37;10.10;;;29.70;99.90;;;;;;5011693;28;20220;-81
2023/09/10 10:30:55;;;;;;;10.70;9.77;;;29.40;99.90;;;;;;5000860;28;20261;-81
2023/09/10 10:33:25;;;;;;;10.47;9.47;;;29.40;99.90;;;;;;5008734;28;20204;-82
2023/09/10 10:36:03;;;;;;;10.77;9.03;;;29.40;99.90;;;;;;5008839;28;20255;-81
2023/09/10 10:38:33;;;;;;;8.07;7.27;;;29.20;99.90;;;;;;5010121;28;20336;-81
2023/09/10 10:41:07;;;;;;;9.47;8.43;;;29.30;99.90;;;;;;5013200;28;20248;-81
2023/09/10 10:43:41;;;;;;;9.40;8.47;;;29.10;99.90;;;;;;5012925;28;20211;-82
2023/09/10 10:46:10;;;;;;;9.93;8.93;;;29.10;99.90;;;;;;5005741;28;20209;-82
2023/09/10 10:48:41;;;;;;;9.63;8.63;;;29.00;99.90;;;;;;5003050;28;20346;-81
2023/09/10 10:51:11;;;;;;;10.37;8.77;;;29.00;99.90;;;;;;5006259;28;20267;-80
2023/09/10 10:53:39;;;;;;;9.77;8.87;;;28.90;99.90;;;;;;4997009;28;20212;-81
2023/09/10 10:56:06;;;;;;;10.43;9.43;;;28.80;99.90;;;;;;4999952;28;20212;-81
2023/09/10 10:58:34;;;;;;;10.30;9.20;;;28.60;99.90;;;;;;5001820;28;20229;-81
2023/09/10 11:01:02;;;;;;;10.73;9.63;;;28.50;99.90;;;;;;5011862;28;20299;-81
2023/09/10 11:03:32;;;;;;;10.03;9.10;;;28.50;99.90;;;;;;5011433;28;20200;-81
2023/09/10 11:06:06;;;;;;;10.30;9.17;;;28.50;99.90;;;;;;5004383;28;20559;-81
2023/09/10 11:08:35;;;;;;;9.50;8.70;;;28.50;99.90;;;;;;5011249;28;20695;-82
2023/09/10 11:11:03;;;;;;;9.40;8.50;;;28.60;99.90;;;;;;5011768;28;20215;-81
2023/09/10 11:13:31;;;;;;;10.10;9.20;;;28.70;99.90;;;;;;5008958;28;20207;-81
2023/09/10 11:16:17;;;;;;;9.97;9.07;;;28.80;99.90;;;;;;5007304;28;20287;-82
2023/09/10 11:18:46;;;;;;;9.30;8.50;;;28.80;99.90;;;;;;5001201;28;20221;-81
2023/09/10 11:21:17;;;;;;;10.63;9.67;;;29.00;99.90;;;;;;5000292;28;20271;-85
2023/09/10 11:24:27;;;;;;;9.97;9.10;;;28.80;99.90;;;;;;5011657;28;20246;-83
2023/09/10 11:27:19;;;;;;;10.40;9.33;;;28.60;99.90;;;;;;5008631;28;20615;-82
2023/09/10 11:30:03;;;;;;;9.40;8.53;;;28.60;99.90;;;;;;5006487;28;20745;-82
2023/09/10 11:32:30;;;;;;;9.73;8.80;;;28.70;99.90;;;;;;5008559;28;20205;-81
2023/09/10 11:35:25;;;;;;;9.63;8.73;;;28.60;99.90;;;;;;4997128;28;20623;-82
2023/09/10 11:37:55;;;;;;;9.83;8.83;;;28.70;99.90;;;;;;5009189;28;20220;-81
2023/09/10 11:40:24;;;;;;;9.60;8.70;;;28.70;99.90;;;;;;5006192;28;20537;-80
2023/09/10 11:42:51;;;;;;;9.73;8.93;;;28.60;99.90;;;;;;5009520;28;20584;-82
2023/09/10 11:45:19;;;;;;;9.13;8.20;;;28.70;99.90;;;;;;5012110;28;20193;-82
2023/09/10 11:47:48;;;;;;;9.50;8.70;;;28.70;99.90;;;;;;5007079;28;20220;-81
2023/09/10 11:50:23;;;;;;;9.73;8.83;;;28.70;99.90;;;;;;5009137;28;20197;-81
2023/09/10 11:52:50;;;;;;;10.23;9.33;;;28.50;99.90;;;;;;5006534;28;20200;-81
2023/09/10 11:55:19;;;;;;;10.37;9.37;;;28.50;99.90;;;;;;5006316;28;20211;-81
2023/09/10 11:57:46;;;;;;;10.33;9.43;;;28.60;99.90;;;;;;5002441;28;20324;-81
2023/09/10 12:00:16;;;;;;;10.60;9.70;;;28.60;99.90;;;;;;5010451;28;20221;-81
2023/09/10 12:02:43;;;;;;;11.00;10.00;;;28.50;99.90;;;;;;5014561;28;20204;-81
2023/09/10 12:05:10;;;;;;;10.20;9.27;;;28.40;99.90;;;;;;5014953;28;20224;-81
2023/09/10 12:07:43;;;;;;;10.20;9.40;;;28.50;99.90;;;;;;5013946;28;20227;-79
2023/09/10 12:10:10;;;;;;;10.17;9.27;;;28.30;99.90;;;;;;5015827;28;20193;-81
2023/09/10 12:12:38;;;;;;;11.17;9.90;;;28.30;99.90;;;;;;5015951;28;20556;-79
2023/09/10 12:15:06;;;;;;;10.90;9.90;;;28.30;99.90;;;;;;5013971;28;20197;-82
2023/09/10 12:17:33;;;;;;;8.60;7.90;;;28.30;99.90;;;;;;5013891;28;20224;-81
2023/09/10 12:20:00;;;;;;;11.90;8.50;;;28.20;99.90;;;;;;5014215;28;20197;-80
2023/09/10 12:22:27;;;;;;;9.20;8.40;;;28.20;99.90;;;;;;5010512;28;20200;-81
2023/09/10 12:24:56;;;;;;;9.63;8.70;;;28.30;99.90;;;;;;5014511;28;20235;-81
2023/09/10 12:27:23;;;;;;;9.43;8.57;;;28.30;99.90;;;;;;5014534;28;20595;-81
2023/09/10 12:29:50;;;;;;;9.47;8.50;;;28.30;99.90;;;;;;5014697;28;20196;-80
2023/09/10 12:32:17;;;;;;;9.53;8.67;;;28.30;99.90;;;;;;5008923;28;20201;-81
2023/09/10 12:34:44;;;;;;;9.90;8.90;;;28.20;99.90;;;;;;5010331;28;20205;-81
2023/09/10 12:37:15;;;;;;;8.43;7.73;;;28.20;99.90;;;;;;5006230;28;20259;-82